Time;durP1;ratioP1;P1;durP2;ratioP2;P2;SDS_P1;SDS_P2;PMS_P1;PMS_P2;Temp;Humidity;BMP_temperature;BMP_pressure;BME280_temperature;BME280_humidity;BME280_pressure;Samples;Min_cycle;Max_cycle;Signal;HPM_P1;HPM_P2
2024/01/16 00:00:20;;;;;;;;;;;;;;;17.17;63.93;99177.38;7394242;19;1139;-34
2024/01/16 00:02:50;;;;;;;;;;;;;;;17.45;63.34;99180.63;7392735;19;1906;-33
2024/01/16 00:05:19;;;;;;;;;;;;;;;17.88;62.05;99171.50;7392748;19;1491;-35
2024/01/16 00:07:47;;;;;;;;;;;;;;;18.03;61.68;99176.19;7392208;19;1879;-33
2024/01/16 00:10:16;;;;;;;;;;;;;;;18.05;61.74;99195.59;7393431;19;1631;-33
2024/01/16 00:12:44;;;;;;;;;;;;;;;17.81;62.24;99202.56;7393612;19;1825;-34
2024/01/16 00:15:12;;;;;;;;;;;;;;;17.57;62.90;99195.34;7393195;19;1527;-33
2024/01/16 00:17:41;;;;;;;;;;;;;;;17.48;62.95;99202.50;7392564;19;1695;-33
2024/01/16 00:20:12;;;;;;;;;;;;;;;17.34;63.20;99213.81;7391956;19;1694;-34
2024/01/16 00:22:41;;;;;;;;;;;;;;;17.15;63.74;99196.25;7393311;19;1845;-34
2024/01/16 00:25:10;;;;;;;;;;;;;;;17.47;63.07;99216.06;7392071;19;1305;-34
2024/01/16 00:27:38;;;;;;;;;;;;;;;18.01;61.54;99223.69;7392967;19;1797;-33
2024/01/16 00:30:07;;;;;;;;;;;;;;;18.03;61.59;99229.69;7391860;19;1614;-34
2024/01/16 00:32:35;;;;;;;;;;;;;;;18.01;61.58;99212.97;7392383;19;1341;-34
2024/01/16 00:35:04;;;;;;;;;;;;;;;17.76;62.17;99226.28;7392029;19;1249;-34
2024/01/16 00:37:34;;;;;;;;;;;;;;;17.58;62.58;99212.22;7393184;19;1742;-33
2024/01/16 00:40:04;;;;;;;;;;;;;;;17.38;63.02;99217.84;7393204;19;1167;-34
2024/01/16 00:42:32;;;;;;;;;;;;;;;17.33;63.16;99228.19;7374721;19;1775;-33
2024/01/16 00:45:01;;;;;;;;;;;;;;;17.19;63.39;99244.81;7390268;19;1853;-33
2024/01/16 00:47:29;;;;;;;;;;;;;;;17.54;62.77;99240.28;7391814;19;1415;-34
2024/01/16 00:49:57;;;;;;;;;;;;;;;18.10;61.33;99257.44;7389459;19;1504;-34
2024/01/16 00:52:26;;;;;;;;;;;;;;;18.19;61.08;99259.13;7391921;19;1471;-33
2024/01/16 00:54:57;;;;;;;;;;;;;;;17.99;61.39;99247.09;7392210;19;1784;-33
2024/01/16 00:57:25;;;;;;;;;;;;;;;17.70;61.98;99238.47;7391075;19;1737;-34
2024/01/16 00:59:54;;;;;;;;;;;;;;;17.51;62.59;99244.13;7390979;19;1131;-33
2024/01/16 01:02:22;;;;;;;;;;;;;;;17.41;62.85;99260.28;7392947;19;1006;-33
2024/01/16 01:04:50;;;;;;;;;;;;;;;17.26;62.98;99257.38;7390908;19;1855;-33
2024/01/16 01:07:18;;;;;;;;;;;;;;;17.20;63.40;99268.72;7392259;19;1618;-34
2024/01/16 01:09:47;;;;;;;;;;;;;;;17.78;61.86;99275.06;7391074;19;1590;-34
2024/01/16 01:12:18;;;;;;;;;;;;;;;18.00;61.18;99264.78;7391615;19;1590;-34
2024/01/16 01:14:46;;;;;;;;;;;;;;;18.08;60.79;99273.66;7390439;19;1452;-35
2024/01/16 01:17:14;;;;;;;;;;;;;;;17.79;61.55;99279.44;7390350;19;1479;-34
2024/01/16 01:19:43;;;;;;;;;;;;;;;17.55;62.07;99282.03;7390377;19;1509;-33
2024/01/16 01:22:11;;;;;;;;;;;;;;;17.38;62.53;99281.97;7391438;19;1642;-34
2024/01/16 01:24:39;;;;;;;;;;;;;;;17.23;63.13;99275.56;7390071;19;1845;-33
2024/01/16 01:27:08;;;;;;;;;;;;;;;17.09;63.16;99283.19;7391633;19;1136;-34
2024/01/16 01:29:39;;;;;;;;;;;;;;;17.32;62.83;99281.78;7387367;19;1452;-34
2024/01/16 01:32:08;;;;;;;;;;;;;;;17.55;62.20;99282.03;7389677;19;1304;-33
2024/01/16 01:34:36;;;;;;;;;;;;;;;17.94;61.32;99302.88;7391444;19;1395;-34
2024/01/16 01:37:05;;;;;;;;;;;;;;;17.99;60.97;99301.41;7393921;19;1527;-33
2024/01/16 01:39:33;;;;;;;;;;;;;;;17.68;61.83;99299.28;7397585;19;1496;-34
2024/01/16 01:42:01;;;;;;;;;;;;;;;17.49;62.11;99303.06;7381305;19;1190;-33
2024/01/16 01:44:29;;;;;;;;;;;;;;;17.33;62.38;99304.81;7395486;19;1850;-34
2024/01/16 01:47:01;;;;;;;;;;;;;;;17.24;62.62;99307.47;7397568;19;1531;-34
2024/01/16 01:49:30;;;;;;;;;;;;;;;17.03;63.27;99320.38;7398985;19;1017;-33
2024/01/16 01:51:58;;;;;;;;;;;;;;;17.27;62.72;99307.16;7397379;19;1773;-33
2024/01/16 01:54:27;;;;;;;;;;;;;;;17.70;61.74;99316.00;7397478;19;1786;-33
2024/01/16 01:56:56;;;;;;;;;;;;;;;18.06;60.65;99302.44;7396563;19;1534;-33
2024/01/16 01:59:24;;;;;;;;;;;;;;;18.16;60.33;99306.78;7396629;19;1737;-33
2024/01/16 02:01:55;;;;;;;;;;;;;;;18.22;60.10;99298.94;7397396;19;1720;-34
2024/01/16 02:04:27;;;;;;;;;;;;;;;18.20;60.30;99302.75;7396270;19;1845;-34
2024/01/16 02:06:56;;;;;;;;;;;;;;;18.25;59.92;99303.09;7396406;19;1399;-34
2024/01/16 02:09:25;;;;;;;;;;;;;;;18.13;60.47;99320.50;7397537;19;1497;-34
2024/01/16 02:11:53;;;;;;;;;;;;;;;17.86;61.01;99306.38;7395923;19;1733;-33
2024/01/16 02:14:22;;;;;;;;;;;;;;;17.60;61.47;99301.09;7396757;19;1226;-33
2024/01/16 02:16:50;;;;;;;;;;;;;;;17.41;62.23;99318.25;7396112;19;1816;-34
2024/01/16 02:19:19;;;;;;;;;;;;;;;17.29;62.38;99323.03;7397838;19;1583;-34
2024/01/16 02:21:51;;;;;;;;;;;;;;;17.17;62.52;99314.47;7397439;19;1694;-33
2024/01/16 02:24:22;;;;;;;;;;;;;;;17.19;62.74;99325.81;7395985;19;1861;-34
2024/01/16 02:26:50;;;;;;;;;;;;;;;17.52;61.96;99317.94;7398283;19;1855;-33
2024/01/16 02:29:19;;;;;;;;;;;;;;;17.89;60.84;99322.13;7396796;19;1507;-34
2024/01/16 02:31:47;;;;;;;;;;;;;;;18.19;60.24;99327.84;7392640;19;1837;-34
2024/01/16 02:34:16;;;;;;;;;;;;;;;18.22;59.94;99346.25;7395778;19;1308;-34
2024/01/16 02:36:44;;;;;;;;;;;;;;;18.23;59.90;99351.44;7397191;19;1454;-33
2024/01/16 02:39:12;;;;;;;;;;;;;;;18.23;60.05;99362.13;7397645;19;1054;-34
2024/01/16 02:41:43;;;;;;;;;;;;;;;18.30;59.62;99362.31;7378916;19;1871;-34
2024/01/16 02:44:12;;;;;;;;;;;;;;;18.29;59.70;99376.69;7392830;19;1859;-33
2024/01/16 02:46:41;;;;;;;;;;;;;;;18.21;59.85;99380.19;7395968;19;1498;-34
2024/01/16 02:49:10;;;;;;;;;;;;;;;17.90;60.76;99393.31;7396184;19;1249;-34
2024/01/16 02:51:38;;;;;;;;;;;;;;;17.61;61.52;99394.50;7396812;19;1038;-34
2024/01/16 02:54:07;;;;;;;;;;;;;;;17.41;61.85;99404.59;7396531;19;1480;-34
2024/01/16 02:56:36;;;;;;;;;;;;;;;17.28;62.18;99394.31;7395623;19;1840;-34
2024/01/16 02:59:07;;;;;;;;;;;;;;;17.24;62.08;99416.16;7394626;19;1574;-33
2024/01/16 03:01:35;;;;;;;;;;;;;;;17.23;62.48;99439.38;7395156;19;1566;-34
2024/01/16 03:04:04;;;;;;;;;;;;;;;17.43;61.85;99445.34;7394317;19;1838;-34
2024/01/16 03:06:32;;;;;;;;;;;;;;;17.82;60.86;99465.44;7395078;19;1578;-35
2024/01/16 03:09:00;;;;;;;;;;;;;;;18.09;60.08;99467.13;7394567;19;1675;-34
2024/01/16 03:11:29;;;;;;;;;;;;;;;18.21;59.92;99479.19;7394318;19;1597;-34
2024/01/16 03:13:57;;;;;;;;;;;;;;;18.25;59.76;99501.13;7394346;19;1538;-34
2024/01/16 03:16:28;;;;;;;;;;;;;;;18.22;59.52;99493.41;7395085;19;1109;-34
2024/01/16 03:18:57;;;;;;;;;;;;;;;18.34;59.42;99496.63;7392581;19;1934;-33
2024/01/16 03:21:25;;;;;;;;;;;;;;;18.37;59.37;99509.69;7393245;19;1567;-34
2024/01/16 03:23:54;;;;;;;;;;;;;;;18.31;59.43;99505.81;7394039;19;1853;-33
2024/01/16 03:26:22;;;;;;;;;;;;;;;18.36;59.38;99508.00;7393773;19;1427;-34
2024/01/16 03:28:51;;;;;;;;;;;;;;;18.08;60.17;99527.81;7394034;19;1780;-34
2024/01/16 03:31:21;;;;;;;;;;;;;;;17.74;60.83;99522.38;7394371;19;1240;-34
2024/01/16 03:33:52;;;;;;;;;;;;;;;17.55;61.34;99517.22;7395432;19;1015;-34
2024/01/16 03:36:20;;;;;;;;;;;;;;;17.34;61.78;99515.75;7394595;19;1890;-33
2024/01/16 03:38:48;;;;;;;;;;;;;;;17.29;61.82;99523.41;7391245;19;1778;-33
2024/01/16 03:41:17;;;;;;;;;;;;;;;17.19;61.99;99531.50;7393365;19;1329;-34
2024/01/16 03:43:45;;;;;;;;;;;;;;;17.30;61.81;99538.44;7378775;19;1838;-34
2024/01/16 03:46:13;;;;;;;;;;;;;;;17.61;61.17;99551.38;7395608;19;1368;-32
2024/01/16 03:48:41;;;;;;;;;;;;;;;17.99;60.21;99549.31;7394693;19;1558;-32
2024/01/16 03:51:15;;;;;;;;;;;;;;;18.17;59.59;99563.47;7394192;19;1843;-33
2024/01/16 03:53:43;;;;;;;;;;;;;;;18.26;59.32;99558.97;7393559;19;1927;-32
2024/01/16 03:56:12;;;;;;;;;;;;;;;18.26;59.23;99575.03;7394170;19;1395;-32
2024/01/16 03:58:40;;;;;;;;;;;;;;;18.28;59.16;99568.53;7391363;19;1683;-33
2024/01/16 04:01:08;;;;;;;;;;;;;;;18.60;58.41;99582.19;7393322;19;1368;-32
2024/01/16 04:03:38;;;;;;;;;;;;;;;18.81;57.94;99569.25;7390564;19;1452;-33
2024/01/16 04:06:07;;;;;;;;;;;;;;;19.01;57.43;99580.53;7390123;19;1837;-33
2024/01/16 04:08:39;;;;;;;;;;;;;;;18.75;58.14;99602.00;7393581;19;1497;-33
2024/01/16 04:11:08;;;;;;;;;;;;;;;18.72;58.27;99601.50;7391494;19;1391;-33
2024/01/16 04:13:36;;;;;;;;;;;;;;;18.80;58.01;99604.22;7393263;19;1212;-34
2024/01/16 04:16:04;;;;;;;;;;;;;;;18.79;58.10;99608.75;7392686;19;1918;-33
2024/01/16 04:18:35;;;;;;;;;;;;;;;18.82;57.96;99605.78;7392544;19;1507;-32
2024/01/16 04:21:03;;;;;;;;;;;;;;;18.73;58.05;99619.25;7391546;19;1433;-33
2024/01/16 04:23:32;;;;;;;;;;;;;;;18.63;58.16;99620.22;7392912;19;1808;-33
2024/01/16 04:26:03;;;;;;;;;;;;;;;18.61;58.36;99622.22;7391131;19;1900;-32
2024/01/16 04:28:31;;;;;;;;;;;;;;;18.60;58.55;99625.91;7391766;19;1383;-33
2024/01/16 04:31:00;;;;;;;;;;;;;;;18.61;58.30;99638.28;7392084;19;1391;-32
2024/01/16 04:33:28;;;;;;;;;;;;;;;18.58;58.32;99641.28;7391547;19;1831;-32
2024/01/16 04:35:56;;;;;;;;;;;;;;;18.55;58.49;99648.81;7393062;19;1566;-33
2024/01/16 04:38:25;;;;;;;;;;;;;;;18.59;58.31;99667.06;7391668;19;1471;-33
2024/01/16 04:40:53;;;;;;;;;;;;;;;18.55;58.71;99664.88;7392498;19;1497;-32
2024/01/16 04:43:24;;;;;;;;;;;;;;;18.64;58.35;99677.28;7373910;19;1661;-33
2024/01/16 04:45:52;;;;;;;;;;;;;;;18.69;58.14;99673.13;7389453;19;1846;-32
2024/01/16 04:48:21;;;;;;;;;;;;;;;18.91;57.75;99675.44;7389704;19;1479;-33
2024/01/16 04:50:49;;;;;;;;;;;;;;;18.93;57.83;99706.41;7391621;19;1301;-32
2024/01/16 04:53:18;;;;;;;;;;;;;;;18.98;57.65;99704.09;7391144;19;1317;-33
2024/01/16 04:55:46;;;;;;;;;;;;;;;18.97;57.79;99715.81;7389776;19;1337;-33
2024/01/16 04:58:15;;;;;;;;;;;;;;;18.91;57.58;99735.19;7389330;19;1489;-33
2024/01/16 05:00:46;;;;;;;;;;;;;;;18.81;58.15;99748.72;7390609;19;1472;-33
2024/01/16 05:03:14;;;;;;;;;;;;;;;18.74;59.01;99734.25;7387804;19;1721;-33
2024/01/16 05:05:43;;;;;;;;;;;;;;;18.76;59.21;99742.97;7385649;19;1849;-33
2024/01/16 05:08:12;;;;;;;;;;;;;;;18.65;59.74;99745.91;7390411;19;1627;-32
2024/01/16 05:10:40;;;;;;;;;;;;;;;18.56;60.13;99755.75;7391031;19;1246;-34
2024/01/16 05:13:11;;;;;;;;;;;;;;;18.50;60.44;99753.66;7390009;19;1633;-32
2024/01/16 05:15:39;;;;;;;;;;;;;;;18.52;60.37;99751.66;7390295;19;1479;-33
2024/01/16 05:18:10;;;;;;;;;;;;;;;18.48;60.57;99755.66;7390550;19;1484;-33
2024/01/16 05:20:38;;;;;;;;;;;;;;;18.43;60.69;99752.63;7388662;19;1348;-33
2024/01/16 05:23:07;;;;;;;;;;;;;;;18.45;60.60;99753.31;7388618;19;1258;-34
2024/01/16 05:25:35;;;;;;;;;;;;;;;18.45;60.50;99750.63;7388340;19;1856;-33
2024/01/16 05:28:03;;;;;;;;;;;;;;;18.76;59.71;99775.13;7389340;19;1922;-33
2024/01/16 05:30:33;;;;;;;;;;;;;;;19.04;58.91;99783.84;7388213;19;1149;-33
2024/01/16 05:33:02;;;;;;;;;;;;;;;18.82;59.43;99792.41;7385837;19;1535;-33
2024/01/16 05:35:33;;;;;;;;;;;;;;;18.70;59.88;99807.84;7387229;19;1717;-33
2024/01/16 05:38:01;;;;;;;;;;;;;;;18.75;59.90;99805.56;7389664;19;1419;-33
2024/01/16 05:40:29;;;;;;;;;;;;;;;18.81;59.67;99813.00;7389878;19;1237;-33
2024/01/16 05:42:58;;;;;;;;;;;;;;;18.84;59.68;99812.69;7373376;19;1336;-33
2024/01/16 05:45:26;;;;;;;;;;;;;;;18.67;60.05;99824.25;7387406;19;1845;-32
2024/01/16 05:47:55;;;;;;;;;;;;;;;18.60;60.11;99817.81;6867977;19;10000811;-33
2024/01/16 05:50:23;;;;;;;;;;;;;;;18.54;60.40;99838.03;7378943;19;1521;-33
2024/01/16 05:52:54;;;;;;;;;;;;;;;18.57;60.12;99856.47;7383165;19;1476;-33
2024/01/16 05:55:23;;;;;;;;;;;;;;;18.55;60.38;99857.63;7381344;19;1858;-33
2024/01/16 05:57:51;;;;;;;;;;;;;;;18.55;60.42;99874.53;7382900;19;1630;-33
2024/01/16 06:00:22;;;;;;;;;;;;;;;18.67;60.32;99883.16;7380909;19;1272;-33
2024/01/16 06:02:50;;;;;;;;;;;;;;;18.73;60.14;99903.13;7381342;19;1522;-33
2024/01/16 06:05:19;;;;;;;;;;;;;;;18.69;59.79;99892.72;7378280;19;1890;-33
2024/01/16 06:07:47;;;;;;;;;;;;;;;18.60;59.95;99893.66;7381749;19;1733;-33
2024/01/16 06:10:18;;;;;;;;;;;;;;;18.62;59.60;99915.78;7383274;19;1702;-33
2024/01/16 06:12:46;;;;;;;;;;;;;;;18.74;59.33;99900.31;7381192;19;1682;-33
2024/01/16 06:15:15;;;;;;;;;;;;;;;18.72;59.31;99912.16;7382337;19;1630;-33
2024/01/16 06:17:43;;;;;;;;;;;;;;;18.78;59.40;99939.19;7382137;19;1495;-32
2024/01/16 06:20:12;;;;;;;;;;;;;;;18.87;59.19;99929.41;7375714;19;1436;-33
2024/01/16 06:22:41;;;;;;;;;;;;;;;18.94;59.43;99934.97;7385878;19;1499;-33
2024/01/16 06:25:09;;;;;;;;;;;;;;;18.94;59.31;99933.16;7386891;19;1839;-32
2024/01/16 06:27:40;;;;;;;;;;;;;;;18.92;59.20;99948.53;7390819;19;1722;-32
2024/01/16 06:30:09;;;;;;;;;;;;;;;18.93;59.25;99952.06;7389742;19;1543;-32
2024/01/16 06:32:38;;;;;;;;;;;;;;;18.89;59.22;99962.22;7385941;19;1456;-33
2024/01/16 06:35:07;;;;;;;;;;;;;;;18.74;59.49;99974.44;7386817;19;1599;-33
2024/01/16 06:37:36;;;;;;;;;;;;;;;18.73;59.33;99988.84;7383916;19;1660;-33
2024/01/16 06:40:05;;;;;;;;;;;;;;;18.59;59.47;99983.00;7389390;19;1376;-32
2024/01/16 06:42:33;;;;;;;;;;;;;;;18.63;59.41;99989.75;7370007;19;1451;-36
2024/01/16 06:45:04;;;;;;;;;;;;;;;18.76;59.23;99997.41;7391691;19;1854;-35
2024/01/16 06:47:36;;;;;;;;;;;;;;;18.90;59.15;100011.28;7387822;19;1662;-35
2024/01/16 06:50:04;;;;;;;;;;;;;;;18.28;58.87;99927.16;7391504;19;1488;-35
2024/01/16 06:52:32;;;;;;;;;;;;;;;18.97;58.72;100036.47;7394823;19;1470;-35
2024/01/16 06:55:01;;;;;;;;;;;;;;;18.98;58.94;100030.09;7394518;19;1579;-35
2024/01/16 06:57:29;;;;;;;;;;;;;;;19.05;58.56;100037.38;7393499;19;1170;-36
2024/01/16 06:59:57;;;;;;;;;;;;;;;19.10;58.46;100039.63;7394967;19;1046;-33
2024/01/16 07:02:28;;;;;;;;;;;;;;;19.12;58.32;100043.00;7393147;19;1570;-33
2024/01/16 07:04:57;;;;;;;;;;;;;;;19.08;58.54;100039.78;7393226;19;1866;-34
2024/01/16 07:07:25;;;;;;;;;;;;;;;19.02;58.50;100043.06;7389635;19;1408;-33
2024/01/16 07:09:54;;;;;;;;;;;;;;;18.96;58.97;100070.47;7391933;19;1473;-33
2024/01/16 07:12:22;;;;;;;;;;;;;;;18.91;58.82;100051.31;7386740;19;1555;-32
2024/01/16 07:14:50;;;;;;;;;;;;;;;18.91;58.97;100040.59;7393741;19;1252;-33
2024/01/16 07:17:18;;;;;;;;;;;;;;;18.99;58.86;100063.97;7390011;19;1571;-34
2024/01/16 07:19:49;;;;;;;;;;;;;;;19.11;58.60;100072.63;7392778;19;1560;-33
2024/01/16 07:22:18;;;;;;;;;;;;;;;19.08;58.57;100088.00;7390745;19;1233;-33
2024/01/16 07:24:46;;;;;;;;;;;;;;;18.99;58.92;100088.91;7392542;19;1161;-33
2024/01/16 07:27:14;;;;;;;;;;;;;;;18.98;58.88;100095.28;7387374;19;1816;-32
2024/01/16 07:29:43;;;;;;;;;;;;;;;18.87;58.82;100082.09;7390664;19;1380;-32
2024/01/16 07:32:12;;;;;;;;;;;;;;;18.84;58.67;100093.09;7392381;19;1994;-33
2024/01/16 07:34:40;;;;;;;;;;;;;;;18.78;58.80;100099.03;7390468;19;1674;-33
2024/01/16 07:37:11;;;;;;;;;;;;;;;18.84;58.74;100119.88;7391903;19;1407;-33
2024/01/16 07:39:39;;;;;;;;;;;;;;;18.84;58.90;100127.91;7392612;19;1076;-34
2024/01/16 07:42:07;;;;;;;;;;;;;;;18.88;58.68;100129.34;7390596;19;1526;-32
2024/01/16 07:44:36;;;;;;;;;;;;;;;19.01;58.53;100143.19;7374856;19;1213;-34
2024/01/16 07:47:04;;;;;;;;;;;;;;;18.92;58.47;100153.97;7388252;19;1915;-33
2024/01/16 07:49:32;;;;;;;;;;;;;;;18.98;58.37;100164.94;7391320;19;1588;-33
2024/01/16 07:52:01;;;;;;;;;;;;;;;18.97;58.49;100171.28;7390571;19;1202;-33
2024/01/16 07:54:32;;;;;;;;;;;;;;;18.97;58.45;100175.81;7391763;19;1159;-33
2024/01/16 07:57:00;;;;;;;;;;;;;;;18.95;58.55;100186.66;7388790;19;1353;-33
2024/01/16 07:59:29;;;;;;;;;;;;;;;18.87;58.75;100179.38;7390290;19;1558;-33
2024/01/16 08:01:57;;;;;;;;;;;;;;;18.86;58.74;100195.59;7390190;19;1626;-33
2024/01/16 08:04:25;;;;;;;;;;;;;;;18.86;58.88;100203.63;7391330;19;1598;-34
2024/01/16 08:06:55;;;;;;;;;;;;;;;18.83;58.74;100198.56;7388293;19;1853;-34
2024/01/16 08:09:23;;;;;;;;;;;;;;;18.80;59.03;100212.25;7389988;19;1401;-32
2024/01/16 08:11:54;;;;;;;;;;;;;;;18.78;58.74;100192.78;7390579;19;1320;-33
2024/01/16 08:14:22;;;;;;;;;;;;;;;18.77;58.89;100215.22;7390416;19;1337;-33
2024/01/16 08:16:51;;;;;;;;;;;;;;;18.79;58.82;100226.63;7390021;19;1455;-34
2024/01/16 08:19:19;;;;;;;;;;;;;;;18.74;59.07;100232.44;7390817;19;1345;-34
2024/01/16 08:21:47;;;;;;;;;;;;;;;18.72;59.10;100237.09;7390200;19;1202;-33
2024/01/16 08:24:15;;;;;;;;;;;;;;;18.69;59.11;100214.09;7390820;19;1182;-34
2024/01/16 08:26:44;;;;;;;;;;;;;;;18.74;59.04;100247.63;7388121;19;1863;-33
2024/01/16 08:29:15;;;;;;;;;;;;;;;18.67;59.16;100221.44;7389626;19;1504;-34
2024/01/16 08:31:43;;;;;;;;;;;;;;;18.63;59.13;100246.81;7390358;19;1234;-33
2024/01/16 08:34:11;;;;;;;;;;;;;;;18.66;59.25;100259.94;7389272;19;1285;-33
2024/01/16 08:36:40;;;;;;;;;;;;;;;18.64;59.07;100256.56;7388588;19;1432;-33
2024/01/16 08:39:08;;;;;;;;;;;;;;;18.81;59.02;100276.41;7390129;19;1583;-33
2024/01/16 08:41:36;;;;;;;;;;;;;;;18.79;58.46;100265.00;7388950;19;1458;-33
2024/01/16 08:44:05;;;;;;;;;;;;;;;18.77;58.45;100279.50;7373795;19;1141;-34
2024/01/16 08:46:36;;;;;;;;;;;;;;;18.75;58.52;100276.97;7386493;19;1838;-34
2024/01/16 08:49:04;;;;;;;;;;;;;;;18.80;58.54;100265.81;7387959;19;1226;-33
2024/01/16 08:51:32;;;;;;;;;;;;;;;18.81;58.69;100283.59;7389649;19;1408;-33
2024/01/16 08:54:01;;;;;;;;;;;;;;;18.82;58.71;100287.94;7389131;19;1318;-33
2024/01/16 08:56:29;;;;;;;;;;;;;;;18.82;58.62;100287.94;7389942;19;1498;-33
2024/01/16 08:58:57;;;;;;;;;;;;;;;18.91;58.54;100294.28;7388233;19;1752;-33
2024/01/16 09:01:25;;;;;;;;;;;;;;;18.92;57.99;100302.19;7387623;19;1403;-33
2024/01/16 09:03:56;;;;;;;;;;;;;;;18.92;58.13;100278.06;7387067;19;1489;-34
2024/01/16 09:06:25;;;;;;;;;;;;;;;18.92;58.06;100307.53;7319240;19;12649;-33
2024/01/16 09:08:53;;;;;;;;;;;;;;;18.97;58.33;100324.00;7389566;19;1559;-33
2024/01/16 09:11:21;;;;;;;;;;;;;;;18.99;58.14;100338.09;7387205;19;1221;-33
2024/01/16 09:13:50;;;;;;;;;;;;;;;18.97;58.02;100342.78;7388913;19;1228;-33
2024/01/16 09:16:18;;;;;;;;;;;;;;;19.01;58.04;100335.28;7386676;19;1343;-34
2024/01/16 09:18:47;;;;;;;;;;;;;;;19.27;57.89;100332.78;7388217;19;1836;-33
2024/01/16 09:21:18;;;;;;;;;;;;;;;19.26;57.57;100325.75;7388943;19;1649;-33
2024/01/16 09:23:47;;;;;;;;;;;;;;;19.24;57.52;100341.13;7388795;19;1375;-33
2024/01/16 09:26:15;;;;;;;;;;;;;;;19.28;57.56;100345.22;7387647;19;1847;-33
2024/01/16 09:28:44;;;;;;;;;;;;;;;19.30;57.83;100348.59;7387072;19;1419;-32
2024/01/16 09:31:12;;;;;;;;;;;;;;;18.77;57.16;100225.94;7388028;19;1597;-33
2024/01/16 09:33:41;;;;;;;;;;;;;;;19.52;57.01;100333.06;7388463;19;1866;-33
2024/01/16 09:36:09;;;;;;;;;;;;;;;19.53;56.93;100370.47;7388426;19;1403;-33
2024/01/16 09:38:40;;;;;;;;;;;;;;;19.59;56.87;100366.38;7387806;19;1450;-34
2024/01/16 09:41:09;;;;;;;;;;;;;;;19.58;56.75;100372.75;7388499;19;1514;-33
2024/01/16 09:43:38;;;;;;;;;;;;;;;19.53;57.08;100373.16;7370120;19;1689;-33
2024/01/16 09:46:07;;;;;;;;;;;;;;;19.48;57.09;100384.34;7384491;19;1857;-34
2024/01/16 09:48:35;;;;;;;;;;;;;;;19.32;57.53;100385.94;7386991;19;1323;-33
2024/01/16 09:51:04;;;;;;;;;;;;;;;19.15;57.78;100390.25;7388537;19;1395;-34
2024/01/16 09:53:32;;;;;;;;;;;;;;;19.12;57.81;100396.75;7387521;19;1722;-33
2024/01/16 09:56:05;;;;;;;;;;;;;;;19.08;58.07;100406.09;7386275;19;1182;-33
2024/01/16 09:58:36;;;;;;;;;;;;;;;19.02;58.28;100396.78;7393773;19;1458;-33
2024/01/16 10:01:05;;;;;;;;;;;;;;;19.01;58.26;100396.91;7391058;19;2365;-33
2024/01/16 10:03:33;;;;;;;;;;;;;;;19.02;58.21;100412.88;7394757;19;1435;-33
2024/01/16 10:06:02;;;;;;;;;;;;;;;19.13;57.84;100408.31;7392135;19;1877;-33
2024/01/16 10:08:31;;;;;;;;;;;;;;;19.12;57.87;100382.50;7392571;19;1356;-33
2024/01/16 10:10:59;;;;;;;;;;;;;;;18.55;57.55;100292.22;7393682;19;1162;-33
2024/01/16 10:13:31;;;;;;;;;;;;;;;19.25;57.54;100421.41;7394919;19;1479;-33
2024/01/16 10:15:59;;;;;;;;;;;;;;;19.34;57.46;100408.97;7394619;19;1906;-33
2024/01/16 10:18:29;;;;;;;;;;;;;;;19.38;57.45;100418.41;7394270;19;1510;-33
2024/01/16 10:20:57;;;;;;;;;;;;;;;19.54;57.19;100423.16;7393780;19;1487;-33
2024/01/16 10:23:26;;;;;;;;;;;;;;;19.54;57.18;100409.75;7395005;19;1200;-33
2024/01/16 10:26:15;;;;;;;;;;;;;;;19.47;57.22;100422.88;7393807;19;1490;-33
2024/01/16 10:28:46;;;;;;;;;;;;;;;19.54;57.11;100420.47;7393641;19;1996;-33
2024/01/16 10:31:16;;;;;;;;;;;;;;;19.51;57.29;100420.75;7394272;19;1039;-33
2024/01/16 10:33:44;;;;;;;;;;;;;;;19.59;57.24;100425.38;7392267;19;1541;-33
2024/01/16 10:36:14;;;;;;;;;;;;;;;19.64;57.05;100431.16;7393967;19;1466;-33
2024/01/16 10:38:43;;;;;;;;;;;;;;;19.56;56.99;100436.41;7393135;19;1320;-33
2024/01/16 10:41:12;;;;;;;;;;;;;;;19.64;57.15;100433.84;7393485;19;1491;-33
2024/01/16 10:43:40;;;;;;;;;;;;;;;19.68;56.95;100429.88;7372099;19;1828;-33
2024/01/16 10:46:14;;;;;;;;;;;;;;;19.61;56.95;100439.47;7392441;19;1926;-33
2024/01/16 10:48:44;;;;;;;;;;;;;;;19.61;57.07;100445.69;7390938;19;1380;-34
2024/01/16 10:51:13;;;;;;;;;;;;;;;19.67;56.94;100455.00;7394430;19;1765;-34
2024/01/16 10:53:44;;;;;;;;;;;;;;;19.51;57.17;100436.00;7393317;19;1793;-33
2024/01/16 10:56:13;;;;;;;;;;;;;;;19.59;56.75;100455.72;7393033;19;1669;-33
2024/01/16 10:58:42;;;;;;;;;;;;;;;19.41;57.50;100465.53;7392006;19;1886;-33
2024/01/16 11:01:18;;;;;;;;;;;;;;;19.05;58.32;100444.72;7393412;19;1965;-33
2024/01/16 11:03:49;;;;;;;;;;;;;;;18.83;59.17;100469.16;7391446;19;1768;-33
2024/01/16 11:06:18;;;;;;;;;;;;;;;18.65;59.47;100471.66;7391068;19;1861;-34
2024/01/16 11:08:48;;;;;;;;;;;;;;;18.50;59.82;100471.19;7390306;19;1477;-34
2024/01/16 11:11:17;;;;;;;;;;;;;;;18.38;60.02;100456.25;7390983;19;1612;-42
2024/01/16 11:13:46;;;;;;;;;;;;;;;18.32;60.15;100465.69;7394438;19;1122;-33
2024/01/16 11:16:17;;;;;;;;;;;;;;;18.22;60.42;100481.75;7393028;19;1019;-33
2024/01/16 11:18:45;;;;;;;;;;;;;;;18.52;59.97;100479.94;7392245;19;1950;-33
2024/01/16 11:21:15;;;;;;;;;;;;;;;18.98;58.58;100467.72;7389810;19;1923;-33
2024/01/16 11:23:45;;;;;;;;;;;;;;;18.82;58.99;100473.66;7392305;19;1781;-33
2024/01/16 11:26:28;;;;;;;;;;;;;;;18.56;59.69;100480.50;7392861;19;1511;-33
2024/01/16 11:28:58;;;;;;;;;;;;;;;18.43;59.91;100465.56;7392029;19;1339;-33
2024/01/16 11:31:33;;;;;;;;;;;;;;;18.28;60.04;100499.06;7394441;19;1169;-34
2024/01/16 11:34:02;;;;;;;;;;;;;;;18.17;60.32;100481.31;7391960;19;2450;-34
2024/01/16 11:36:46;;;;;;;;;;;;;;;18.35;60.13;100484.16;7391697;19;1242;-34
2024/01/16 11:39:20;;;;;;;;;;;;;;;18.78;59.03;100490.09;7390266;19;1462;-34
2024/01/16 11:41:57;;;;;;;;;;;;;;;18.93;58.42;100480.69;7392031;19;1233;-33
2024/01/16 11:44:42;;;;;;;;;;;;;;;18.67;59.24;100493.78;7375695;19;1701;-33
2024/01/16 11:47:18;;;;;;;;;;;;;;;18.46;59.65;100501.91;7391370;19;1861;-34
2024/01/16 11:49:46;;;;;;;;;;;;;;;18.24;60.13;100517.25;7392142;19;1798;-34
2024/01/16 11:52:15;;;;;;;;;;;;;;;18.13;60.58;100514.69;7391448;19;1329;-33
2024/01/16 11:54:41;;;;;;;;;;;;;;;18.38;59.75;100509.81;7391880;19;1817;-34
2024/01/16 11:57:28;;;;;;;;;;;;;;;18.78;59.03;100519.56;7392531;19;1550;-33
2024/01/16 12:00:12;;;;;;;;;;;;;;;18.90;58.54;100502.44;7392619;19;1998;-33
2024/01/16 12:02:58;;;;;;;;;;;;;;;18.61;59.10;100511.25;7392190;19;1311;-33
2024/01/16 12:05:29;;;;;;;;;;;;;;;18.39;59.85;100531.09;7390260;19;1851;-33
2024/01/16 12:07:57;;;;;;;;;;;;;;;18.23;60.20;100534.28;7390290;19;1832;-33
2024/01/16 12:10:26;;;;;;;;;;;;;;;18.11;60.59;100540.72;7392778;19;1959;-33
2024/01/16 12:12:59;;;;;;;;;;;;;;;18.31;60.15;100538.13;7392146;19;1625;-33
2024/01/16 12:15:30;;;;;;;;;;;;;;;18.81;59.08;100543.47;7390588;19;1729;-34
2024/01/16 12:17:59;;;;;;;;;;;;;;;18.94;58.75;100501.16;7391288;19;1642;-33
2024/01/16 12:20:31;;;;;;;;;;;;;;;18.62;59.02;100542.41;7390245;19;940;-33
2024/01/16 12:22:59;;;;;;;;;;;;;;;18.28;59.90;100548.13;7386711;19;1466;-34
2024/01/16 12:25:28;;;;;;;;;;;;;;;18.06;60.42;100559.88;7389406;19;1427;-33
2024/01/16 12:27:57;;;;;;;;;;;;;;;17.92;61.01;100551.34;7386417;19;1849;-33
2024/01/16 12:30:28;;;;;;;;;;;;;;;18.01;60.88;100556.75;7382800;19;1164;-33
2024/01/16 12:33:05;;;;;;;;;;;;;;;18.51;59.83;100571.16;7390410;19;1497;-33
2024/01/16 12:35:37;;;;;;;;;;;;;;;18.57;59.25;100550.00;7389353;19;1134;-33
2024/01/16 12:38:05;;;;;;;;;;;;;;;18.32;59.88;100564.72;7383576;19;1252;-33
2024/01/16 12:40:34;;;;;;;;;;;;;;;18.18;60.31;100584.69;7385373;19;1934;-34
2024/01/16 12:43:03;;;;;;;;;;;;;;;17.95;60.29;100577.84;7381818;19;1514;-34
2024/01/16 12:45:31;;;;;;;;;;;;;;;17.83;60.74;100567.22;7368938;19;1673;-33
2024/01/16 12:48:00;;;;;;;;;;;;;;;18.16;59.12;100575.09;7383179;19;1849;-33
2024/01/16 12:50:29;;;;;;;;;;;;;;;18.57;58.47;100579.47;7381698;19;1581;-33
2024/01/16 12:53:07;;;;;;;;;;;;;;;18.54;58.78;100590.44;7384824;19;1681;-33
2024/01/16 12:55:36;;;;;;;;;;;;;;;18.27;59.28;100609.81;7384639;19;1491;-33
2024/01/16 12:58:18;;;;;;;;;;;;;;;18.08;59.89;100622.13;7386553;19;1558;-33
2024/01/16 13:00:46;;;;;;;;;;;;;;;17.93;60.49;100630.63;7387591;19;1641;-34
2024/01/16 13:03:18;;;;;;;;;;;;;;;18.03;60.47;100626.19;7386283;19;1230;-33